Terminal Aerodrome Forecast
Issued by NWS Central Illinois

Home | Current Version | Previous Version | Text Only | Print | Product List | Glossary On
Versions: 1 2 3 4 5 6 7 8 9 10 11 12 13 14 15 16
811
FTUS43 KILX 241945 AAA
TAFPIA
TAF AMD
KPIA 241945Z 2420/2518 03012KT P6SM SCT045
     FM250000 01004KT P6SM SCT250
     FM250900 03008KT P6SM SCT140 BKN250=

USA.gov is the U.S. government's official web portal to all federal, state and local government web resources and services.